Terminal Aerodrome Forecast
Issued by NWS Tuscon, AZ

Home | Current Version | Previous Version | Text Only | Print | Product List | Glossary On
Versions: 1 2 3 4 5 6 7 8 9 10 11 12
979
FTUS45 KTWC 141129
TAFTUS
TAF
KTUS 141129Z 1412/1512 13005KT P6SM BKN250
     FM141600 VRB03KT P6SM SCT250
     FM142000 32010KT P6SM FEW250
     FM150300 25005KT P6SM SCT250
     FM150900 14006KT P6SM SCT250=

USA.gov is the U.S. government's official web portal to all federal, state and local government web resources and services.